Time;durP1;ratioP1;P1;durP2;ratioP2;P2;SDS_P1;SDS_P2;PMS_P1;PMS_P2;Temp;Humidity;BMP_temperature;BMP_pressure;BME280_temperature;BME280_humidity;BME280_pressure;Samples;Min_cycle;Max_cycle;Signal;HPM_P1;HPM_P2
2024/03/07 00:00:47;;;;;;;44.03;18.73;;;;;;;;;;6178636;23;20246;-90
2024/03/07 00:03:52;;;;;;;41.20;18.30;;;;;;;;;;6179255;23;20171;-91
2024/03/07 00:06:57;;;;;;;49.20;19.85;;;;;;;;;;6177736;23;20227;-91
2024/03/07 00:10:06;;;;;;;41.90;19.00;;;;;;;;;;6178011;23;20176;-90
2024/03/07 00:13:13;;;;;;;43.90;18.77;;;;;;;;;;6197303;23;20176;-90
2024/03/07 00:16:18;;;;;;;42.45;17.75;;;;;;;;;;6182906;23;20192;-91
2024/03/07 00:19:25;;;;;;;40.90;17.98;;;;;;;;;;6195986;23;20219;-89
2024/03/07 00:22:31;;;;;;;37.60;17.20;;;;;;;;;;6197993;23;20176;-90
2024/03/07 00:25:37;;;;;;;42.40;18.55;;;;;;;;;;6197380;23;20171;-90
2024/03/07 00:28:42;;;;;;;44.85;17.50;;;;;;;;;;6197465;23;20635;-90
2024/03/07 00:31:51;;;;;;;43.95;17.10;;;;;;;;;;6197342;23;20179;-89
2024/03/07 00:34:56;;;;;;;42.15;17.25;;;;;;;;;;6196171;23;20179;-90
2024/03/07 00:38:01;;;;;;;43.08;16.92;;;;;;;;;;6195506;23;20168;-90
2024/03/07 00:41:09;;;;;;;37.90;15.55;;;;;;;;;;6196895;23;20156;-91
2024/03/07 00:44:14;;;;;;;46.30;16.73;;;;;;;;;;6178730;23;20187;-90
2024/03/07 00:47:19;;;;;;;43.88;16.58;;;;;;;;;;6180119;23;20324;-89
2024/03/07 00:50:27;;;;;;;40.97;16.35;;;;;;;;;;6180526;23;20215;-89
2024/03/07 00:53:32;;;;;;;39.13;15.67;;;;;;;;;;6179118;23;20666;-89
2024/03/07 00:56:39;;;;;;;37.80;15.47;;;;;;;;;;6179559;23;20241;-89
2024/03/07 00:59:45;;;;;;;49.53;18.40;;;;;;;;;;6179251;23;20163;-88
2024/03/07 01:02:53;;;;;;;45.57;18.87;;;;;;;;;;6180067;23;20160;-89
2024/03/07 01:05:57;;;;;;;42.50;17.37;;;;;;;;;;6197647;23;20598;-90
2024/03/07 01:09:03;;;;;;;38.47;16.63;;;;;;;;;;6179530;23;20293;-90
2024/03/07 01:12:10;;;;;;;47.53;17.60;;;;;;;;;;6179269;23;20176;-90
2024/03/07 01:15:15;;;;;;;42.90;17.73;;;;;;;;;;6197318;23;20263;-90
2024/03/07 01:18:20;;;;;;;40.37;17.20;;;;;;;;;;6198157;23;20168;-89
2024/03/07 01:21:26;;;;;;;46.30;18.30;;;;;;;;;;6180571;23;20228;-89
2024/03/07 01:24:33;;;;;;;41.53;17.13;;;;;;;;;;6181478;23;20195;-90
2024/03/07 01:27:40;;;;;;;43.07;17.63;;;;;;;;;;6180027;23;20243;-91
2024/03/07 01:30:45;;;;;;;46.77;18.07;;;;;;;;;;6198724;23;20168;-91
2024/03/07 01:33:50;;;;;;;45.07;17.93;;;;;;;;;;6198312;23;20167;-91
2024/03/07 01:36:55;;;;;;;44.93;18.50;;;;;;;;;;6197502;23;20549;-90
2024/03/07 01:40:05;;;;;;;53.47;18.57;;;;;;;;;;6199695;23;20503;-89
2024/03/07 01:43:12;;;;;;;44.43;18.00;;;;;;;;;;6198543;23;20172;-91
2024/03/07 01:46:19;;;;;;;45.07;18.60;;;;;;;;;;6182009;23;20191;-91
2024/03/07 01:49:24;;;;;;;45.50;18.13;;;;;;;;;;6196707;23;20607;-88
2024/03/07 01:52:30;;;;;;;41.27;16.63;;;;;;;;;;6196775;23;20156;-90
2024/03/07 01:55:35;;;;;;;45.27;17.83;;;;;;;;;;6195750;23;20167;-90
2024/03/07 01:58:42;;;;;;;44.77;18.20;;;;;;;;;;6196564;23;20172;-90
2024/03/07 02:01:48;;;;;;;49.70;18.57;;;;;;;;;;6197875;23;20212;-90
2024/03/07 02:04:53;;;;;;;49.27;18.03;;;;;;;;;;6196762;23;20164;-90
2024/03/07 02:07:58;;;;;;;43.93;18.20;;;;;;;;;;6196524;23;20187;-90
2024/03/07 02:11:03;;;;;;;52.87;19.27;;;;;;;;;;6180721;23;20175;-90
2024/03/07 02:14:09;;;;;;;41.80;18.10;;;;;;;;;;6198266;23;20207;-90
2024/03/07 02:17:15;;;;;;;46.43;18.00;;;;;;;;;;6197445;23;20168;-89
2024/03/07 02:20:24;;;;;;;43.23;17.57;;;;;;;;;;6196301;23;20247;-90
2024/03/07 02:23:32;;;;;;;44.80;17.27;;;;;;;;;;6196981;23;20172;-89
2024/03/07 02:26:39;;;;;;;45.50;18.60;;;;;;;;;;6178753;23;20179;-89
2024/03/07 02:29:44;;;;;;;50.73;18.17;;;;;;;;;;6195467;23;20171;-89
2024/03/07 02:32:53;;;;;;;45.20;17.97;;;;;;;;;;6178999;23;20176;-90
2024/03/07 02:35:59;;;;;;;45.37;18.83;;;;;;;;;;6197077;23;20164;-90
2024/03/07 02:39:06;;;;;;;45.47;17.47;;;;;;;;;;6199634;23;20167;-88
2024/03/07 02:42:12;;;;;;;46.03;18.07;;;;;;;;;;6179494;23;20240;-89
2024/03/07 02:45:17;;;;;;;44.30;18.40;;;;;;;;;;6179467;23;20187;-89
2024/03/07 02:48:25;;;;;;;45.23;17.63;;;;;;;;;;6177364;23;20192;-90
2024/03/07 02:51:31;;;;;;;50.30;18.60;;;;;;;;;;6198641;23;20223;-90
2024/03/07 02:54:38;;;;;;;52.87;19.97;;;;;;;;;;6197468;23;20152;-89
2024/03/07 02:57:47;;;;;;;48.50;19.10;;;;;;;;;;6181024;23;20260;-90
2024/03/07 03:00:58;;;;;;;53.20;18.97;;;;;;;;;;6180144;23;20806;-90
2024/03/07 03:04:04;;;;;;;49.73;18.33;;;;;;;;;;6197124;23;20171;-88
2024/03/07 03:07:10;;;;;;;47.43;18.47;;;;;;;;;;6178675;23;20248;-88
2024/03/07 03:10:17;;;;;;;47.90;18.83;;;;;;;;;;6197336;23;20167;-89
2024/03/07 03:13:22;;;;;;;50.97;20.07;;;;;;;;;;6180595;23;20236;-89
2024/03/07 03:16:27;;;;;;;50.17;19.73;;;;;;;;;;6196364;23;20171;-89
2024/03/07 03:19:32;;;;;;;49.80;19.20;;;;;;;;;;6179153;23;20635;-88
2024/03/07 03:22:37;;;;;;;52.27;19.73;;;;;;;;;;6178495;23;20168;-90
2024/03/07 03:25:45;;;;;;;44.40;18.37;;;;;;;;;;6180527;23;20164;-90
2024/03/07 03:32:10;;;;;;;48.27;18.73;;;;;;;;;;6178834;23;20192;-90
2024/03/07 03:35:15;;;;;;;51.87;20.00;;;;;;;;;;6180173;23;20156;-88
2024/03/07 03:38:21;;;;;;;50.10;19.43;;;;;;;;;;6179857;23;20155;-89
2024/03/07 03:41:28;;;;;;;61.47;22.63;;;;;;;;;;6180848;23;20172;-89
2024/03/07 03:44:34;;;;;;;64.53;23.50;;;;;;;;;;6180516;23;20191;-90
2024/03/07 03:47:39;;;;;;;58.63;21.80;;;;;;;;;;6197673;23;20203;-90
2024/03/07 03:50:46;;;;;;;65.30;22.67;;;;;;;;;;6179075;23;20172;-89
2024/03/07 03:53:53;;;;;;;70.67;23.27;;;;;;;;;;6198023;23;20211;-89
2024/03/07 03:57:00;;;;;;;68.50;24.23;;;;;;;;;;6180954;23;20168;-89
2024/03/07 04:00:12;;;;;;;65.70;22.17;;;;;;;;;;6198304;23;20195;-89
2024/03/07 04:03:17;;;;;;;56.53;21.63;;;;;;;;;;6179042;23;20615;-89
2024/03/07 04:06:22;;;;;;;55.63;21.80;;;;;;;;;;6195475;23;20223;-91
2024/03/07 04:09:29;;;;;;;60.93;21.70;;;;;;;;;;6196149;23;20171;-90
2024/03/07 04:12:37;;;;;;;58.30;22.03;;;;;;;;;;6195140;23;20677;-89
2024/03/07 04:15:42;;;;;;;65.13;21.10;;;;;;;;;;6195721;23;20167;-90
2024/03/07 04:18:47;;;;;;;55.43;21.83;;;;;;;;;;6195226;23;20265;-88
2024/03/07 04:21:54;;;;;;;55.63;20.80;;;;;;;;;;6195713;23;20167;-89
2024/03/07 04:25:03;;;;;;;56.70;20.90;;;;;;;;;;6178337;23;20180;-90
2024/03/07 04:28:10;;;;;;;57.50;19.63;;;;;;;;;;6178058;23;20280;-90
2024/03/07 04:31:15;;;;;;;49.60;19.73;;;;;;;;;;6195674;23;20172;-90
2024/03/07 04:34:20;;;;;;;54.63;20.77;;;;;;;;;;6179311;23;20227;-90
2024/03/07 04:37:27;;;;;;;55.43;20.93;;;;;;;;;;6195735;23;20576;-90
2024/03/07 04:40:40;;;;;;;58.43;22.30;;;;;;;;;;6197611;23;20163;-90
2024/03/07 04:43:47;;;;;;;56.90;21.43;;;;;;;;;;6185167;23;20200;-91
2024/03/07 04:46:55;;;;;;;60.13;21.77;;;;;;;;;;6195269;23;20231;-91
2024/03/07 04:50:00;;;;;;;60.17;23.73;;;;;;;;;;6181965;23;20248;-91
2024/03/07 04:53:06;;;;;;;66.43;22.83;;;;;;;;;;6181654;23;20180;-91
2024/03/07 04:56:11;;;;;;;63.93;23.03;;;;;;;;;;6199277;23;20180;-91
2024/03/07 04:59:18;;;;;;;61.93;22.53;;;;;;;;;;6180946;23;20232;-91
2024/03/07 05:02:24;;;;;;;58.03;21.67;;;;;;;;;;6181184;23;20258;-91
2024/03/07 05:05:29;;;;;;;57.30;21.00;;;;;;;;;;6181127;23;20176;-90
2024/03/07 05:08:34;;;;;;;56.57;20.40;;;;;;;;;;6195944;23;20694;-90
2024/03/07 05:11:40;;;;;;;59.77;21.90;;;;;;;;;;6197764;23;20172;-88
2024/03/07 05:14:47;;;;;;;57.60;20.77;;;;;;;;;;6179128;23;20168;-91
2024/03/07 05:17:53;;;;;;;47.30;20.27;;;;;;;;;;6196719;23;20171;-91
2024/03/07 05:21:23;;;;;;;54.57;19.90;;;;;;;;;;6180868;23;20163;-90
2024/03/07 05:24:23;;;;;;;51.93;20.30;;;;;;;;;;6179618;23;20159;-89
2024/03/07 05:27:30;;;;;;;58.93;21.13;;;;;;;;;;6197998;23;20599;-90
2024/03/07 05:30:37;;;;;;;55.63;21.70;;;;;;;;;;6200883;23;20504;-90
2024/03/07 05:33:44;;;;;;;53.83;19.90;;;;;;;;;;6182954;23;20172;-90
2024/03/07 05:36:49;;;;;;;56.17;21.83;;;;;;;;;;6199393;23;20612;-91
2024/03/07 05:39:55;;;;;;;51.20;19.83;;;;;;;;;;6182228;23;20167;-89
2024/03/07 05:43:00;;;;;;;55.77;19.67;;;;;;;;;;6198568;23;20172;-90
2024/03/07 05:46:09;;;;;;;56.13;20.93;;;;;;;;;;6182298;23;20292;-89
2024/03/07 05:49:18;;;;;;;52.47;20.53;;;;;;;;;;6181966;23;20195;-91
2024/03/07 05:52:23;;;;;;;58.17;22.13;;;;;;;;;;6196926;23;20151;-90
2024/03/07 05:55:28;;;;;;;57.50;21.47;;;;;;;;;;6177990;23;20167;-91
2024/03/07 05:58:33;;;;;;;53.50;20.57;;;;;;;;;;6178700;23;20611;-91
2024/03/07 06:01:40;;;;;;;57.07;21.23;;;;;;;;;;6196184;23;20241;-90
2024/03/07 06:04:45;;;;;;;58.23;22.13;;;;;;;;;;6197706;23;20243;-89
2024/03/07 06:07:51;;;;;;;48.87;20.07;;;;;;;;;;6197283;23;20223;-89
2024/03/07 06:10:56;;;;;;;56.77;21.43;;;;;;;;;;6198674;23;20204;-90
2024/03/07 06:14:02;;;;;;;48.27;18.97;;;;;;;;;;6199060;23;20160;-92
2024/03/07 06:17:10;;;;;;;53.00;20.37;;;;;;;;;;6183249;23;20167;-90
2024/03/07 06:20:22;;;;;;;52.67;21.07;;;;;;;;;;6181905;23;20176;-89
2024/03/07 06:23:30;;;;;;;53.97;20.47;;;;;;;;;;6198733;23;20219;-89
2024/03/07 06:26:46;;;;;;;51.60;20.87;;;;;;;;;;6196877;23;20224;-91
2024/03/07 06:29:51;;;;;;;54.23;21.23;;;;;;;;;;6197639;23;20631;-91
2024/03/07 06:32:57;;;;;;;54.70;20.20;;;;;;;;;;6178431;23;20262;-91
2024/03/07 06:36:02;;;;;;;54.33;21.27;;;;;;;;;;6200553;23;20211;-91
2024/03/07 06:39:10;;;;;;;55.33;20.53;;;;;;;;;;6178498;23;20188;-90
2024/03/07 06:42:15;;;;;;;54.90;20.73;;;;;;;;;;6194329;23;20167;-90
2024/03/07 06:45:20;;;;;;;56.43;20.87;;;;;;;;;;6178783;23;20172;-89
2024/03/07 06:48:28;;;;;;;53.80;20.53;;;;;;;;;;6196914;23;20187;-90
2024/03/07 06:51:33;;;;;;;48.50;20.73;;;;;;;;;;6197337;23;20172;-88
2024/03/07 06:54:39;;;;;;;55.77;21.70;;;;;;;;;;6197723;23;20167;-89
2024/03/07 06:57:44;;;;;;;58.03;20.57;;;;;;;;;;6196130;23;20252;-88
2024/03/07 07:00:51;;;;;;;57.70;21.77;;;;;;;;;;6196775;23;20160;-89
2024/03/07 07:04:03;;;;;;;55.90;21.90;;;;;;;;;;6181818;23;20160;-90
2024/03/07 07:07:08;;;;;;;55.07;21.27;;;;;;;;;;6200906;23;20179;-89
2024/03/07 07:10:17;;;;;;;50.73;20.17;;;;;;;;;;6180921;23;20163;-89
2024/03/07 07:13:23;;;;;;;51.80;20.13;;;;;;;;;;6197780;23;20171;-89
2024/03/07 07:16:29;;;;;;;55.40;21.07;;;;;;;;;;6178207;23;20191;-89
2024/03/07 07:19:36;;;;;;;52.37;20.80;;;;;;;;;;6179551;23;20175;-88
2024/03/07 07:22:41;;;;;;;56.40;21.80;;;;;;;;;;6181407;23;20203;-89
2024/03/07 07:25:48;;;;;;;53.10;21.60;;;;;;;;;;6176431;23;20172;-89
2024/03/07 07:28:54;;;;;;;57.43;20.20;;;;;;;;;;6194059;23;20191;-89
2024/03/07 07:31:59;;;;;;;55.27;22.40;;;;;;;;;;6195607;23;20167;-88
2024/03/07 07:35:09;;;;;;;60.43;21.60;;;;;;;;;;6197096;23;20615;-90
2024/03/07 07:38:14;;;;;;;49.30;21.07;;;;;;;;;;6177970;23;20167;-88
2024/03/07 07:41:19;;;;;;;56.10;21.70;;;;;;;;;;6194627;23;20168;-89
2024/03/07 07:44:25;;;;;;;58.10;22.40;;;;;;;;;;6192991;23;20230;-88
2024/03/07 07:47:32;;;;;;;53.00;21.97;;;;;;;;;;6194695;23;20155;-89
2024/03/07 07:50:38;;;;;;;57.43;21.83;;;;;;;;;;6180683;23;20175;-88
2024/03/07 07:53:44;;;;;;;59.93;21.97;;;;;;;;;;6192446;23;20628;-89
2024/03/07 07:56:49;;;;;;;53.07;21.23;;;;;;;;;;6196914;23;20167;-88
2024/03/07 07:59:54;;;;;;;59.03;22.53;;;;;;;;;;6195756;23;20624;-89
2024/03/07 08:03:00;;;;;;;67.03;24.80;;;;;;;;;;6194794;23;20171;-86
2024/03/07 08:06:06;;;;;;;61.97;24.57;;;;;;;;;;6177005;23;20168;-88
2024/03/07 08:09:16;;;;;;;62.00;25.17;;;;;;;;;;6193007;23;20199;-88
2024/03/07 08:12:21;;;;;;;60.93;22.83;;;;;;;;;;6195518;23;20172;-88
2024/03/07 08:15:27;;;;;;;54.57;22.13;;;;;;;;;;6197495;23;20207;-87
2024/03/07 08:18:33;;;;;;;57.53;21.03;;;;;;;;;;6196240;23;20175;-89
2024/03/07 08:21:43;;;;;;;55.23;21.93;;;;;;;;;;6196662;23;20184;-88
2024/03/07 08:24:48;;;;;;;53.33;21.97;;;;;;;;;;6197321;23;20171;-89
2024/03/07 08:27:53;;;;;;;59.73;21.03;;;;;;;;;;6198148;23;20176;-89
2024/03/07 08:30:59;;;;;;;58.03;22.50;;;;;;;;;;6197815;23;20167;-89
2024/03/07 08:34:05;;;;;;;57.47;21.70;;;;;;;;;;6197220;23;20215;-89
2024/03/07 08:37:13;;;;;;;51.73;20.93;;;;;;;;;;6179204;23;20151;-90
2024/03/07 08:40:20;;;;;;;49.17;18.63;;;;;;;;;;6197561;23;20223;-88
2024/03/07 08:43:27;;;;;;;48.70;19.58;;;;;;;;;;6196749;23;20187;-89
2024/03/07 08:46:32;;;;;;;45.65;19.15;;;;;;;;;;6179756;23;20168;-89
2024/03/07 08:49:37;;;;;;;44.85;18.02;;;;;;;;;;6197583;23;20195;-89
2024/03/07 08:52:44;;;;;;;44.70;18.13;;;;;;;;;;6181252;23;20156;-89
2024/03/07 08:55:55;;;;;;;42.42;16.90;;;;;;;;;;6181591;23;20212;-91
2024/03/07 08:59:00;;;;;;;40.00;15.83;;;;;;;;;;6197354;23;20160;-90
2024/03/07 09:02:06;;;;;;;41.00;17.65;;;;;;;;;;6196994;23;20171;-90
2024/03/07 09:05:11;;;;;;;43.20;18.13;;;;;;;;;;6195545;23;20203;-89
2024/03/07 09:08:21;;;;;;;36.75;15.65;;;;;;;;;;6181420;23;20168;-89
2024/03/07 09:11:26;;;;;;;39.00;15.57;;;;;;;;;;6182204;23;20171;-89
2024/03/07 09:14:32;;;;;;;34.55;14.57;;;;;;;;;;6197523;23;20503;-90
2024/03/07 09:17:37;;;;;;;37.08;15.07;;;;;;;;;;6198622;23;20227;-89
2024/03/07 09:20:45;;;;;;;32.90;13.65;;;;;;;;;;6197785;23;20172;-90
2024/03/07 09:23:52;;;;;;;22.38;10.40;;;;;;;;;;6180546;23;20160;-89
2024/03/07 09:26:57;;;;;;;27.00;11.20;;;;;;;;;;6198839;23;20253;-90
2024/03/07 09:30:02;;;;;;;22.10;10.15;;;;;;;;;;6181113;23;20520;-87
2024/03/07 09:33:10;;;;;;;21.80;8.75;;;;;;;;;;6183731;23;20166;-89
2024/03/07 09:36:15;;;;;;;24.98;11.73;;;;;;;;;;6182504;23;20167;-89
2024/03/07 09:39:22;;;;;;;19.45;9.50;;;;;;;;;;6199250;23;20176;-88
2024/03/07 09:42:28;;;;;;;27.25;9.95;;;;;;;;;;6179526;23;20167;-90
2024/03/07 09:45:34;;;;;;;31.27;10.23;;;;;;;;;;6178850;23;20280;-89
2024/03/07 09:48:39;;;;;;;19.95;9.82;;;;;;;;;;6196875;23;20167;-91
2024/03/07 09:51:48;;;;;;;22.80;8.70;;;;;;;;;;6179678;23;20172;-89
2024/03/07 09:54:55;;;;;;;20.38;8.98;;;;;;;;;;6182637;23;20157;-89
2024/03/07 09:58:02;;;;;;;19.10;8.90;;;;;;;;;;6181117;23;20163;-90
2024/03/07 10:01:11;;;;;;;17.33;8.93;;;;;;;;;;6184232;23;20249;-90
2024/03/07 10:04:18;;;;;;;22.00;9.82;;;;;;;;;;6183539;23;20180;-89
2024/03/07 10:07:24;;;;;;;16.77;8.00;;;;;;;;;;6179559;23;20182;-90
2024/03/07 10:10:31;;;;;;;15.93;8.52;;;;;;;;;;6197677;23;20192;-91
2024/03/07 10:13:36;;;;;;;17.48;8.80;;;;;;;;;;6180303;23;20602;-90
2024/03/07 10:16:42;;;;;;;17.92;8.63;;;;;;;;;;6181054;23;20284;-91
2024/03/07 10:19:50;;;;;;;19.23;8.73;;;;;;;;;;6181410;23;20171;-90
2024/03/07 10:22:55;;;;;;;18.33;9.65;;;;;;;;;;6181520;23;20395;-90
2024/03/07 10:26:03;;;;;;;22.33;9.63;;;;;;;;;;6178668;23;20164;-90
2024/03/07 10:29:08;;;;;;;17.10;8.73;;;;;;;;;;6181695;23;20195;-89
2024/03/07 10:32:14;;;;;;;17.85;9.02;;;;;;;;;;6180770;23;20508;-89
2024/03/07 10:35:24;;;;;;;22.20;9.63;;;;;;;;;;6180192;23;20168;-91
2024/03/07 10:38:29;;;;;;;19.20;9.10;;;;;;;;;;6180118;23;20619;-90
2024/03/07 10:41:37;;;;;;;19.58;9.45;;;;;;;;;;6179115;23;20178;-90
2024/03/07 10:44:45;;;;;;;19.95;9.32;;;;;;;;;;6179553;23;20269;-87
2024/03/07 10:47:55;;;;;;;22.85;9.73;;;;;;;;;;6180760;23;20175;-89
2024/03/07 10:51:09;;;;;;;24.25;9.98;;;;;;;;;;6180792;23;20291;-90
2024/03/07 10:54:20;;;;;;;23.02;11.57;;;;;;;;;;6181253;23;20220;-90
2024/03/07 10:57:32;;;;;;;23.98;10.10;;;;;;;;;;6197144;23;20164;-89
2024/03/07 11:00:39;;;;;;;21.58;9.15;;;;;;;;;;6198917;23;20159;-91
2024/03/07 11:03:46;;;;;;;23.50;10.07;;;;;;;;;;6179232;23;20168;-88
2024/03/07 11:06:51;;;;;;;21.67;10.38;;;;;;;;;;6199602;23;20588;-89
2024/03/07 11:09:56;;;;;;;20.55;10.10;;;;;;;;;;6198470;23;20187;-90
2024/03/07 11:13:05;;;;;;;20.02;9.68;;;;;;;;;;6197153;23;20159;-90
2024/03/07 11:16:11;;;;;;;20.27;9.50;;;;;;;;;;6180543;23;20196;-90
2024/03/07 11:19:21;;;;;;;20.52;10.30;;;;;;;;;;6180948;23;20179;-90
2024/03/07 11:22:30;;;;;;;21.90;9.70;;;;;;;;;;6179854;23;20172;-90
2024/03/07 11:25:38;;;;;;;21.48;10.30;;;;;;;;;;6180282;23;20336;-91
2024/03/07 11:28:47;;;;;;;22.83;10.23;;;;;;;;;;6180678;23;20156;-91
2024/03/07 11:31:55;;;;;;;20.92;10.10;;;;;;;;;;6196121;23;20612;-90
2024/03/07 11:35:00;;;;;;;26.60;11.48;;;;;;;;;;6197826;23;20172;-89
2024/03/07 11:38:11;;;;;;;22.40;9.70;;;;;;;;;;6184713;23;20171;-91
2024/03/07 11:41:16;;;;;;;24.45;10.98;;;;;;;;;;6182219;23;20172;-89
2024/03/07 11:44:23;;;;;;;22.83;10.73;;;;;;;;;;6182504;23;20171;-89
2024/03/07 11:47:29;;;;;;;22.52;10.48;;;;;;;;;;6182525;23;20155;-90
2024/03/07 11:50:35;;;;;;;18.60;10.00;;;;;;;;;;6197768;23;20542;-90
2024/03/07 11:53:42;;;;;;;24.38;10.77;;;;;;;;;;6198830;23;20168;-91
2024/03/07 11:56:51;;;;;;;23.08;11.20;;;;;;;;;;6197461;23;20279;-89
2024/03/07 12:00:00;;;;;;;23.83;10.75;;;;;;;;;;6197045;23;20176;-88
2024/03/07 12:03:13;;;;;;;25.27;10.57;;;;;;;;;;6198822;23;20196;-89
2024/03/07 12:06:19;;;;;;;25.25;11.73;;;;;;;;;;6198547;23;20171;-90
2024/03/07 12:09:25;;;;;;;23.55;11.60;;;;;;;;;;6198072;23;20199;-89
2024/03/07 12:12:32;;;;;;;26.23;12.15;;;;;;;;;;6200271;23;20167;-90
2024/03/07 12:15:40;;;;;;;29.33;11.48;;;;;;;;;;6199399;23;20160;-90
2024/03/07 12:18:48;;;;;;;25.60;12.13;;;;;;;;;;6198773;23;20167;-90
2024/03/07 12:21:53;;;;;;;27.83;12.25;;;;;;;;;;6200081;23;20196;-89
2024/03/07 12:25:03;;;;;;;28.08;11.77;;;;;;;;;;6199542;23;20631;-89
2024/03/07 12:28:16;;;;;;;24.05;10.57;;;;;;;;;;6198317;23;20160;-90
2024/03/07 12:31:25;;;;;;;22.70;10.25;;;;;;;;;;6182044;23;20194;-89
2024/03/07 12:34:31;;;;;;;25.05;10.43;;;;;;;;;;6200265;23;20168;-90
2024/03/07 12:37:37;;;;;;;24.23;11.20;;;;;;;;;;6181610;23;20612;-89
2024/03/07 12:40:45;;;;;;;28.55;10.95;;;;;;;;;;6200723;23;20172;-89
2024/03/07 12:43:52;;;;;;;22.50;9.95;;;;;;;;;;6187658;23;20243;-90
2024/03/07 12:47:05;;;;;;;32.45;13.88;;;;;;;;;;6188620;23;20188;-88
2024/03/07 12:50:13;;;;;;;27.10;10.75;;;;;;;;;;6205762;23;20211;-89
2024/03/07 12:53:21;;;;;;;56.97;26.27;;;;;;;;;;6205689;23;20204;-88
2024/03/07 12:56:28;;;;;;;22.50;10.82;;;;;;;;;;6207262;23;20209;-90
2024/03/07 13:02:59;;;;;;;22.42;10.90;;;;;;;;;;6209139;23;20184;-88
2024/03/07 13:12:45;;;;;;;21.48;10.45;;;;;;;;;;6187616;23;20187;-89
2024/03/07 13:15:54;;;;;;;20.40;9.93;;;;;;;;;;6205273;23;20172;-90
2024/03/07 13:19:05;;;;;;;21.88;9.68;;;;;;;;;;6188985;23;20235;-90
2024/03/07 16:56:51;;;;;;;28.48;11.35;;;;;;;;;;6159925;23;20199;-88
2024/03/07 16:59:58;;;;;;;28.85;12.90;;;;;;;;;;6137350;23;20352;-89
2024/03/07 17:03:06;;;;;;;35.13;13.70;;;;;;;;;;6162873;23;20168;-90
2024/03/07 23:01:09;;;;;;;36.63;14.27;;;;;;;;;;6148528;23;20241;-88
2024/03/07 23:04:14;;;;;;;34.10;14.13;;;;;;;;;;6179610;23;20148;-88
2024/03/07 23:07:19;;;;;;;37.13;14.00;;;;;;;;;;6197482;23;20498;-90
2024/03/07 23:10:24;;;;;;;38.53;13.77;;;;;;;;;;6178314;23;20195;-89
2024/03/07 23:13:32;;;;;;;34.93;14.53;;;;;;;;;;6181068;23;20188;-93
2024/03/07 23:16:39;;;;;;;31.20;13.97;;;;;;;;;;6197741;23;20196;-89
2024/03/07 23:19:45;;;;;;;42.50;16.20;;;;;;;;;;6180637;23;20159;-89
2024/03/07 23:22:51;;;;;;;36.03;15.37;;;;;;;;;;6198338;23;20246;-89
2024/03/07 23:25:56;;;;;;;35.30;14.90;;;;;;;;;;6178568;23;20163;-89
2024/03/07 23:29:02;;;;;;;38.50;15.53;;;;;;;;;;6180848;23;20156;-91
2024/03/07 23:32:08;;;;;;;39.30;14.07;;;;;;;;;;6196639;23;20756;-88
2024/03/07 23:35:14;;;;;;;36.57;14.47;;;;;;;;;;6196609;23;20183;-88
2024/03/07 23:38:19;;;;;;;34.60;13.47;;;;;;;;;;6180350;23;20611;-88
2024/03/07 23:41:25;;;;;;;38.30;14.47;;;;;;;;;;6178919;23;20291;-88
2024/03/07 23:44:30;;;;;;;34.57;14.00;;;;;;;;;;6197619;23;20180;-88
2024/03/07 23:47:37;;;;;;;35.43;14.43;;;;;;;;;;6199989;23;20199;-87
2024/03/07 23:50:42;;;;;;;34.10;14.10;;;;;;;;;;6196121;23;20211;-88
2024/03/07 23:53:47;;;;;;;34.80;14.47;;;;;;;;;;6196669;23;20163;-88
2024/03/07 23:56:52;;;;;;;35.50;13.67;;;;;;;;;;6196228;23;20202;-89
2024/03/07 23:59:58;;;;;;;37.17;14.53;;;;;;;;;;6193896;23;20179;-88
